Time;durP1;ratioP1;P1;durP2;ratioP2;P2;SDS_P1;SDS_P2;PMS_P1;PMS_P2;Temp;Humidity;BMP_temperature;BMP_pressure;BME280_temperature;BME280_humidity;BME280_pressure;Samples;Min_cycle;Max_cycle;Signal;HPM_P1;HPM_P2
2023/11/25 00:01:51;;;;;;;4.90;0.93;;;6.10;99.90;;;;;;5047457;28;20081;-40
2023/11/25 00:04:16;;;;;;;5.35;0.73;;;6.10;99.90;;;;;;5047320;28;20549;-43
2023/11/25 00:06:42;;;;;;;6.80;1.15;;;6.10;99.90;;;;;;5047559;28;20028;-39
2023/11/25 00:09:08;;;;;;;5.25;0.70;;;6.00;99.90;;;;;;5047036;28;20026;-45
2023/11/25 00:11:34;;;;;;;2.38;0.50;;;6.00;99.90;;;;;;5047321;28;20025;-41
2023/11/25 00:14:00;;;;;;;3.78;0.47;;;6.10;99.90;;;;;;5046337;28;20083;-39
2023/11/25 00:16:25;;;;;;;4.45;0.68;;;6.10;99.90;;;;;;5046226;28;20013;-42
2023/11/25 00:18:51;;;;;;;3.45;0.73;;;6.00;99.90;;;;;;5047091;28;20041;-42
2023/11/25 00:21:17;;;;;;;9.95;0.70;;;6.00;99.90;;;;;;5047064;28;20044;-40
2023/11/25 00:23:42;;;;;;;5.85;0.50;;;6.00;99.90;;;;;;5047120;28;20077;-40
2023/11/25 00:26:08;;;;;;;7.30;0.90;;;5.90;99.90;;;;;;5046883;28;20094;-43
2023/11/25 00:28:34;;;;;;;14.05;1.13;;;5.90;99.90;;;;;;5047177;28;20468;-40
2023/11/25 00:30:59;;;;;;;2.25;0.65;;;6.00;99.90;;;;;;5046503;28;20033;-43
2023/11/25 00:33:25;;;;;;;10.25;1.13;;;6.00;99.90;;;;;;5047106;28;20073;-41
2023/11/25 00:35:51;;;;;;;9.48;1.48;;;6.00;99.90;;;;;;5046796;28;20018;-41
2023/11/25 00:38:17;;;;;;;7.68;1.33;;;6.00;99.90;;;;;;5047131;28;20025;-44
2023/11/25 00:40:43;;;;;;;9.00;1.17;;;6.10;99.90;;;;;;5045675;28;20025;-39
2023/11/25 00:43:09;;;;;;;5.75;1.33;;;6.20;99.90;;;;;;5047115;28;20017;-40
2023/11/25 00:45:35;;;;;;;5.07;1.63;;;6.20;99.90;;;;;;5046269;28;20057;-41
2023/11/25 00:48:00;;;;;;;9.48;1.35;;;6.30;99.90;;;;;;5046688;28;20025;-42
2023/11/25 00:50:26;;;;;;;7.05;1.00;;;6.40;99.90;;;;;;5046486;28;20025;-44
2023/11/25 00:52:52;;;;;;;7.00;2.17;;;6.40;99.90;;;;;;5047013;28;20018;-40
2023/11/25 00:55:17;;;;;;;9.23;1.23;;;6.40;99.90;;;;;;5046538;28;20025;-47
2023/11/25 00:57:43;;;;;;;9.68;1.15;;;6.40;99.90;;;;;;5046374;28;20021;-43
2023/11/25 01:00:15;;;;;;;10.93;1.25;;;6.40;99.90;;;;;;5044241;28;20030;-40
2023/11/25 01:02:42;;;;;;;17.38;2.45;;;6.30;99.90;;;;;;5059047;28;20032;-42
2023/11/25 01:05:08;;;;;;;10.95;1.38;;;6.20;99.90;;;;;;5045750;28;20119;-42
2023/11/25 01:07:34;;;;;;;15.07;1.92;;;6.20;99.90;;;;;;5045129;28;20021;-43
2023/11/25 01:09:59;;;;;;;12.40;1.00;;;6.20;99.90;;;;;;5046422;28;20029;-40
2023/11/25 01:12:25;;;;;;;4.65;1.73;;;6.20;99.90;;;;;;5046400;28;20056;-42
2023/11/25 01:14:51;;;;;;;5.50;1.00;;;6.10;99.90;;;;;;5046421;28;20060;-40
2023/11/25 01:17:16;;;;;;;9.40;1.05;;;6.10;99.90;;;;;;5045249;28;20057;-41
2023/11/25 01:19:42;;;;;;;8.43;0.93;;;6.00;99.90;;;;;;5045940;28;20033;-41
2023/11/25 01:22:07;;;;;;;18.08;1.73;;;5.90;99.90;;;;;;5046294;28;20025;-40
2023/11/25 01:24:33;;;;;;;6.60;1.90;;;5.90;99.90;;;;;;5045299;28;20033;-41
2023/11/25 01:26:59;;;;;;;10.68;1.10;;;5.90;99.90;;;;;;5045701;28;20033;-42
2023/11/25 01:29:25;;;;;;;12.50;1.73;;;5.80;99.90;;;;;;5046352;28;20071;-42
2023/11/25 01:31:50;;;;;;;10.40;1.08;;;5.90;99.90;;;;;;5045904;28;20017;-45
2023/11/25 01:34:16;;;;;;;10.07;1.10;;;5.90;99.90;;;;;;5045901;28;20029;-48
2023/11/25 01:36:41;;;;;;;11.23;1.23;;;5.90;99.90;;;;;;5045206;28;20029;-44
2023/11/25 01:39:07;;;;;;;11.07;1.42;;;5.80;99.90;;;;;;5045870;28;20045;-40
2023/11/25 01:41:33;;;;;;;7.47;1.73;;;5.80;99.90;;;;;;5045434;28;20045;-41
2023/11/25 01:44:00;;;;;;;7.72;1.17;;;5.80;99.90;;;;;;5045564;28;20148;-41
2023/11/25 01:46:38;;;;;;;9.13;1.60;;;5.70;99.90;;;;;;5044945;28;20502;-43
2023/11/25 01:49:08;;;;;;;13.10;1.67;;;5.70;99.90;;;;;;5045103;28;20018;-41
2023/11/25 01:51:36;;;;;;;11.25;1.58;;;5.60;99.90;;;;;;5044794;28;20052;-39
2023/11/25 01:54:03;;;;;;;;;;;5.60;99.90;;;;;;5044589;28;20017;-43
2023/11/25 01:56:30;;;;;;;8.80;1.30;;;5.60;99.90;;;;;;5045484;28;19909;-41
2023/11/25 01:58:58;;;;;;;8.27;1.23;;;5.50;99.90;;;;;;5045545;28;20025;-41
2023/11/25 02:01:25;;;;;;;;;;;5.60;99.90;;;;;;5045929;28;20022;-41
2023/11/25 02:03:51;;;;;;;6.82;1.20;;;5.60;99.90;;;;;;5044625;28;20311;-42
2023/11/25 02:06:16;;;;;;;5.60;1.48;;;5.60;99.90;;;;;;5044543;28;20026;-41
2023/11/25 02:08:45;;;;;;;9.57;1.63;;;5.60;99.90;;;;;;5045604;28;20025;-41
2023/11/25 02:11:10;;;;;;;7.72;2.30;;;5.60;99.90;;;;;;5045347;28;20479;-41
2023/11/25 02:13:36;;;;;;;8.00;1.92;;;5.60;99.90;;;;;;5044953;28;20025;-42
2023/11/25 02:16:02;;;;;;;9.23;1.23;;;5.60;99.90;;;;;;5045450;28;20029;-42
2023/11/25 02:18:28;;;;;;;9.75;1.15;;;5.50;99.90;;;;;;5045178;28;20052;-41
2023/11/25 02:20:54;;;;;;;5.85;1.42;;;5.50;99.90;;;;;;5044249;28;20049;-41
2023/11/25 02:23:24;;;;;;;7.93;1.17;;;5.50;99.90;;;;;;5044390;28;20076;-55
2023/11/25 02:25:52;;;;;;;6.25;0.95;;;5.50;99.90;;;;;;5044942;28;20037;-45
2023/11/25 02:28:21;;;;;;;12.85;2.75;;;5.40;99.90;;;;;;5045144;28;20527;-43
2023/11/25 02:30:47;;;;;;;15.18;3.00;;;5.40;99.90;;;;;;5045222;28;20033;-45
2023/11/25 02:33:17;;;;;;;10.10;1.88;;;5.40;99.90;;;;;;5043931;28;20504;-41
2023/11/25 02:35:43;;;;;;;10.02;1.90;;;5.50;99.90;;;;;;5043318;28;20384;-40
2023/11/25 02:38:12;;;;;;;35.15;4.30;;;5.60;99.90;;;;;;5045270;28;20083;-42
2023/11/25 02:40:39;;;;;;;5.15;1.35;;;5.60;99.90;;;;;;5047444;28;20052;-40
2023/11/25 02:43:07;;;;;;;6.97;1.67;;;5.60;99.90;;;;;;5048985;28;20036;-40
2023/11/25 02:45:33;;;;;;;13.18;1.45;;;5.60;99.90;;;;;;5048647;28;20085;-44
2023/11/25 02:47:59;;;;;;;24.85;1.58;;;5.50;99.90;;;;;;5049027;28;20168;-41
2023/11/25 02:50:25;;;;;;;8.35;1.38;;;5.40;99.90;;;;;;5049115;28;20025;-42
2023/11/25 02:52:51;;;;;;;3.90;1.00;;;5.40;99.90;;;;;;5049227;28;20017;-41
2023/11/25 02:55:17;;;;;;;11.82;1.23;;;5.30;99.90;;;;;;5048600;28;20084;-41
2023/11/25 02:57:43;;;;;;;15.70;2.50;;;5.30;99.90;;;;;;5049014;28;20036;-41
2023/11/25 03:00:28;;;;;;;10.35;1.63;;;5.30;99.90;;;;;;5048636;28;20041;-42
2023/11/25 03:03:17;;;;;;;14.63;1.75;;;5.30;99.90;;;;;;5047865;28;20034;-41
2023/11/25 03:05:47;;;;;;;12.38;1.60;;;5.30;99.90;;;;;;5047035;28;20383;-44
2023/11/25 03:08:13;;;;;;;20.77;1.63;;;5.20;99.90;;;;;;5048964;28;20431;-42
2023/11/25 03:10:41;;;;;;;8.77;1.35;;;5.20;99.90;;;;;;5047748;28;20460;-41
2023/11/25 03:13:09;;;;;;;8.63;2.42;;;5.20;99.90;;;;;;5048328;28;20049;-39
2023/11/25 03:15:35;;;;;;;9.80;0.98;;;5.20;99.90;;;;;;5048436;28;20026;-42
2023/11/25 03:18:01;;;;;;;16.02;1.98;;;5.20;99.90;;;;;;5048408;28;20479;-40
2023/11/25 03:20:27;;;;;;;5.20;1.38;;;5.20;99.90;;;;;;5047469;28;20395;-42
2023/11/25 03:22:53;;;;;;;7.05;1.55;;;5.20;99.90;;;;;;5048335;28;20022;-41
2023/11/25 03:25:18;;;;;;;13.73;1.20;;;5.20;99.90;;;;;;5048364;28;20116;-45
2023/11/25 03:27:44;;;;;;;9.25;1.20;;;5.20;99.90;;;;;;5048004;28;20076;-41
2023/11/25 03:30:11;;;;;;;8.50;1.10;;;5.30;99.90;;;;;;5048054;28;20026;-44
2023/11/25 03:32:37;;;;;;;14.53;2.17;;;5.30;99.90;;;;;;5048199;28;20059;-41
2023/11/25 03:35:03;;;;;;;9.90;1.35;;;5.30;99.90;;;;;;5048218;28;20025;-40
2023/11/25 03:37:30;;;;;;;4.95;1.30;;;5.30;99.90;;;;;;5047943;28;20037;-41
2023/11/25 03:39:55;;;;;;;9.18;1.33;;;5.30;99.90;;;;;;5047788;28;20034;-40
2023/11/25 03:42:21;;;;;;;9.88;1.52;;;5.40;99.90;;;;;;5047885;28;20056;-40
2023/11/25 03:44:47;;;;;;;8.88;1.38;;;5.50;99.90;;;;;;5047922;28;20029;-40
2023/11/25 03:47:24;;;;;;;8.63;1.25;;;5.50;99.90;;;;;;5048120;28;20026;-37
2023/11/25 03:49:50;;;;;;;11.25;1.63;;;5.50;99.90;;;;;;5047622;28;20052;-40
2023/11/25 03:52:15;;;;;;;13.27;1.10;;;5.60;99.90;;;;;;5047809;28;20041;-41
2023/11/25 03:54:41;;;;;;;15.30;1.67;;;5.50;99.90;;;;;;5047906;28;20085;-41
2023/11/25 03:57:07;;;;;;;9.85;1.92;;;5.60;99.90;;;;;;5047143;28;20461;-47
2023/11/25 03:59:32;;;;;;;7.70;1.02;;;5.70;99.90;;;;;;5047856;28;20017;-43
2023/11/25 04:01:58;;;;;;;10.38;1.27;;;5.60;99.90;;;;;;5047406;28;20029;-38
2023/11/25 04:04:25;;;;;;;6.95;1.48;;;5.60;99.90;;;;;;5047732;28;20030;-38
2023/11/25 04:06:50;;;;;;;6.15;1.00;;;5.60;99.90;;;;;;5047224;28;20545;-40
2023/11/25 04:09:16;;;;;;;5.18;0.80;;;5.60;99.90;;;;;;5046127;28;20021;-40
2023/11/25 04:11:45;;;;;;;6.90;0.43;;;5.50;99.90;;;;;;5047684;28;20017;-43
2023/11/25 04:14:10;;;;;;;5.70;0.47;;;5.50;99.90;;;;;;5045531;28;20029;-42
2023/11/25 04:16:36;;;;;;;1.00;0.93;;;5.40;99.90;;;;;;5045883;28;20036;-41
2023/11/25 04:19:02;;;;;;;0.25;0.10;;;5.40;99.90;;;;;;5047563;28;20030;-40
2023/11/25 04:21:28;;;;;;;1.63;0.43;;;5.50;99.90;;;;;;5046592;28;20018;-40
2023/11/25 04:23:55;;;;;;;0.28;0.28;;;5.50;99.90;;;;;;5047368;28;20017;-41
2023/11/25 04:26:21;;;;;;;0.57;0.10;;;5.60;99.90;;;;;;5046898;28;20026;-41
2023/11/25 04:28:47;;;;;;;2.40;0.20;;;5.60;99.90;;;;;;5047043;28;20029;-44
2023/11/25 04:31:16;;;;;;;1.75;0.17;;;5.70;99.90;;;;;;5046162;28;20052;-43
2023/11/25 04:33:41;;;;;;;2.13;0.25;;;5.80;99.90;;;;;;5046686;28;20026;-41
2023/11/25 04:36:09;;;;;;;2.92;0.10;;;5.80;99.90;;;;;;5047162;28;20021;-40
2023/11/25 04:38:35;;;;;;;0.38;0.08;;;5.80;99.90;;;;;;5047214;28;20031;-41
2023/11/25 04:41:01;;;;;;;4.70;0.50;;;5.80;99.90;;;;;;5046489;28;20480;-42
2023/11/25 04:43:26;;;;;;;7.28;0.43;;;5.80;99.90;;;;;;5046942;28;20037;-42
2023/11/25 04:45:52;;;;;;;0.32;0.10;;;5.80;99.90;;;;;;5045944;28;20047;-42
2023/11/25 04:48:19;;;;;;;3.03;0.43;;;5.80;99.90;;;;;;5046754;28;20022;-42
2023/11/25 04:50:46;;;;;;;0.08;0.03;;;5.80;99.90;;;;;;5046454;28;20010;-41
2023/11/25 04:53:12;;;;;;;0.77;0.13;;;5.90;99.90;;;;;;5045608;28;20025;-41
2023/11/25 04:55:38;;;;;;;5.18;0.22;;;5.90;99.90;;;;;;5046226;28;20383;-40
2023/11/25 04:58:03;;;;;;;1.00;0.60;;;5.90;99.90;;;;;;5046758;28;20026;-43
2023/11/25 05:00:29;;;;;;;3.15;0.30;;;5.90;99.90;;;;;;5045258;28;20053;-40
2023/11/25 05:02:55;;;;;;;1.27;0.20;;;5.90;99.90;;;;;;5046530;28;20025;-54
2023/11/25 05:05:23;;;;;;;0.38;0.25;;;5.90;99.90;;;;;;5046144;28;20497;-39
2023/11/25 05:07:48;;;;;;;0.15;0.10;;;5.80;99.90;;;;;;5046588;28;20024;-37
2023/11/25 05:10:14;;;;;;;1.65;0.45;;;5.80;99.90;;;;;;5045947;28;20021;-40
2023/11/25 05:12:42;;;;;;;0.15;0.10;;;5.70;99.90;;;;;;5045136;28;20021;-38
2023/11/25 05:15:09;;;;;;;1.35;0.25;;;5.70;99.90;;;;;;5046096;28;20044;-39
2023/11/25 05:17:35;;;;;;;2.35;0.52;;;5.60;99.90;;;;;;5046195;28;20041;-39
2023/11/25 05:20:01;;;;;;;1.17;0.35;;;5.60;99.90;;;;;;5045589;28;20048;-38
2023/11/25 05:22:27;;;;;;;3.25;0.35;;;5.60;99.90;;;;;;5045592;28;20021;-38
2023/11/25 05:24:54;;;;;;;2.83;0.30;;;5.50;99.90;;;;;;5045764;28;20030;-39
2023/11/25 05:27:20;;;;;;;1.10;0.03;;;5.50;99.90;;;;;;5046311;28;20047;-37
2023/11/25 05:29:45;;;;;;;4.18;0.40;;;5.50;99.90;;;;;;5045748;28;20051;-38
2023/11/25 05:32:12;;;;;;;1.48;0.43;;;5.40;99.90;;;;;;5046354;28;20025;-38
2023/11/25 05:34:40;;;;;;;1.08;0.17;;;5.50;99.90;;;;;;5045924;28;20026;-38
2023/11/25 05:37:06;;;;;;;2.93;0.13;;;5.40;99.90;;;;;;5046076;28;20079;-38
2023/11/25 05:39:32;;;;;;;1.17;0.30;;;5.50;99.90;;;;;;5045660;28;20088;-38
2023/11/25 05:41:58;;;;;;;4.03;0.50;;;5.50;99.90;;;;;;5045530;28;20025;-37
2023/11/25 05:44:25;;;;;;;2.80;1.30;;;5.40;99.90;;;;;;5045037;28;20052;-45
2023/11/25 05:46:54;;;;;;;8.33;0.70;;;5.50;99.90;;;;;;5045899;28;20064;-39
2023/11/25 05:49:20;;;;;;;5.25;0.45;;;5.60;99.90;;;;;;5045849;28;20260;-46
2023/11/25 05:51:45;;;;;;;2.13;0.80;;;5.50;99.90;;;;;;5045654;28;20044;-39
2023/11/25 05:54:14;;;;;;;1.58;0.55;;;5.60;99.90;;;;;;5045871;28;20017;-37
2023/11/25 05:56:40;;;;;;;2.20;0.40;;;5.50;99.90;;;;;;5043668;28;20094;-39
2023/11/25 05:59:09;;;;;;;4.03;0.77;;;5.50;99.90;;;;;;5045858;28;20029;-39
2023/11/25 06:01:37;;;;;;;2.50;0.60;;;5.40;99.90;;;;;;5045177;28;20025;-39
2023/11/25 06:04:03;;;;;;;3.63;0.70;;;5.40;99.90;;;;;;5045650;28;20029;-36
2023/11/25 06:06:29;;;;;;;5.05;0.45;;;5.40;99.90;;;;;;5045685;28;20032;-38
2023/11/25 06:08:54;;;;;;;1.75;0.55;;;5.50;99.90;;;;;;5045438;28;20061;-38
2023/11/25 06:11:21;;;;;;;3.78;0.60;;;5.50;99.90;;;;;;5038232;28;20018;-40
2023/11/25 06:13:47;;;;;;;1.15;0.50;;;5.50;99.90;;;;;;5047285;28;20022;-40
2023/11/25 06:16:14;;;;;;;0.95;0.40;;;5.50;99.90;;;;;;5049385;28;20089;-40
2023/11/25 06:18:39;;;;;;;2.55;0.68;;;5.40;99.90;;;;;;5049578;28;20103;-38
2023/11/25 06:21:05;;;;;;;2.08;0.52;;;5.40;99.90;;;;;;5048725;28;20025;-40
2023/11/25 06:23:32;;;;;;;8.48;0.90;;;5.40;99.90;;;;;;5049331;28;20026;-37
2023/11/25 06:25:59;;;;;;;4.95;0.50;;;5.40;99.90;;;;;;5040874;28;20061;-38
2023/11/25 06:28:25;;;;;;;2.75;0.77;;;5.30;99.90;;;;;;5031020;28;20042;-39
2023/11/25 06:30:53;;;;;;;3.70;0.63;;;5.30;99.90;;;;;;5048577;28;20028;-39
2023/11/25 06:33:22;;;;;;;2.60;0.73;;;5.30;99.90;;;;;;5048148;28;20036;-43
2023/11/25 06:35:47;;;;;;;7.75;0.60;;;5.30;99.90;;;;;;5047599;28;20026;-39
2023/11/25 06:38:13;;;;;;;5.13;0.80;;;5.30;99.90;;;;;;5048831;28;20751;-68
2023/11/25 06:40:40;;;;;;;5.07;1.02;;;5.30;99.90;;;;;;5048113;28;20030;-39
2023/11/25 06:43:06;;;;;;;6.72;1.00;;;5.30;99.90;;;;;;5048941;28;20487;-40
2023/11/25 06:45:33;;;;;;;6.65;0.75;;;5.40;99.90;;;;;;5048601;28;20022;-40
2023/11/25 06:47:59;;;;;;;2.25;0.60;;;5.40;99.90;;;;;;5047348;28;20041;-42
2023/11/25 06:50:25;;;;;;;3.28;0.63;;;5.50;99.90;;;;;;5049135;28;20022;-39
2023/11/25 06:52:50;;;;;;;4.15;0.90;;;5.60;99.90;;;;;;5048287;28;20028;-39
2023/11/25 06:55:19;;;;;;;5.55;0.70;;;5.60;99.90;;;;;;5048699;28;20033;-42
2023/11/25 06:57:45;;;;;;;3.55;0.52;;;5.60;99.90;;;;;;5049164;28;20077;-40
2023/11/25 07:00:11;;;;;;;8.20;0.85;;;5.70;99.90;;;;;;5047697;28;20025;-39
2023/11/25 07:02:37;;;;;;;6.05;0.93;;;5.70;99.90;;;;;;5048147;28;20030;-39
2023/11/25 07:05:03;;;;;;;3.25;0.77;;;5.60;99.90;;;;;;5048058;28;20440;-39
2023/11/25 07:07:29;;;;;;;6.05;1.30;;;5.60;99.90;;;;;;5048738;28;20022;-39
2023/11/25 07:09:55;;;;;;;15.65;1.65;;;5.60;99.90;;;;;;5048724;28;20052;-42
2023/11/25 07:12:21;;;;;;;1.75;0.40;;;5.60;99.90;;;;;;5048619;28;20025;-41
2023/11/25 07:14:46;;;;;;;14.85;0.70;;;5.60;99.90;;;;;;5048389;28;20086;-39
2023/11/25 07:17:12;;;;;;;13.45;1.08;;;5.70;99.90;;;;;;5048112;28;20093;-45
2023/11/25 07:19:42;;;;;;;8.70;0.50;;;5.80;99.90;;;;;;5048388;28;20024;-52
2023/11/25 07:22:08;;;;;;;7.93;0.50;;;5.90;99.90;;;;;;5047969;28;20036;-54
2023/11/25 07:24:34;;;;;;;3.83;0.63;;;6.00;99.90;;;;;;5047749;28;20565;-41
2023/11/25 07:27:04;;;;;;;4.25;1.13;;;6.00;99.90;;;;;;5048437;28;20092;-42
2023/11/25 07:29:31;;;;;;;2.17;0.93;;;6.00;99.90;;;;;;5048477;28;20029;-38
2023/11/25 07:32:00;;;;;;;12.45;0.50;;;6.10;99.90;;;;;;5046400;28;20025;-41
2023/11/25 07:34:49;;;;;;;5.78;0.30;;;6.10;99.90;;;;;;5046592;28;20040;-43
2023/11/25 07:37:15;;;;;;;6.97;0.90;;;6.10;99.90;;;;;;5046897;28;20076;-42
2023/11/25 07:39:41;;;;;;;2.45;0.60;;;6.20;99.90;;;;;;5047942;28;20022;-41
2023/11/25 07:42:08;;;;;;;0.50;0.40;;;6.30;99.90;;;;;;5048015;28;20052;-43
2023/11/25 07:44:33;;;;;;;5.50;0.60;;;6.40;99.90;;;;;;5047817;28;20032;-40
2023/11/25 07:47:01;;;;;;;0.73;0.10;;;6.30;99.90;;;;;;5047521;28;20466;-40
2023/11/25 07:49:29;;;;;;;3.65;0.45;;;6.30;99.90;;;;;;5048059;28;20113;-54
2023/11/25 07:51:55;;;;;;;3.53;0.73;;;6.30;99.90;;;;;;5047922;28;20518;-52
2023/11/25 07:54:21;;;;;;;0.52;0.40;;;6.40;99.90;;;;;;5046226;28;20022;-50
2023/11/25 07:56:47;;;;;;;0.82;0.35;;;6.40;99.90;;;;;;5047687;28;20459;-54
2023/11/25 07:59:13;;;;;;;3.92;0.60;;;6.40;99.90;;;;;;5045398;28;20465;-52
2023/11/25 08:01:39;;;;;;;7.28;0.35;;;6.50;99.90;;;;;;5047762;28;20037;-54
2023/11/25 08:04:05;;;;;;;1.95;0.35;;;6.50;99.90;;;;;;5047586;28;20029;-54
2023/11/25 08:06:31;;;;;;;3.00;0.70;;;6.60;99.90;;;;;;5047544;28;20029;-55
2023/11/25 08:08:57;;;;;;;6.45;0.50;;;6.60;99.90;;;;;;5047338;28;20104;-54
2023/11/25 08:11:27;;;;;;;6.00;0.65;;;6.50;99.90;;;;;;5047522;28;20028;-54
2023/11/25 08:13:54;;;;;;;0.57;0.30;;;6.40;99.90;;;;;;5045991;28;20025;-55
2023/11/25 08:16:20;;;;;;;3.85;0.60;;;6.30;99.90;;;;;;5046861;28;20032;-53
2023/11/25 08:18:47;;;;;;;4.78;0.35;;;6.20;99.90;;;;;;5047303;28;20065;-50
2023/11/25 08:21:14;;;;;;;6.18;0.95;;;6.10;99.90;;;;;;5046775;28;20021;-43
2023/11/25 08:23:42;;;;;;;12.70;0.80;;;6.10;99.90;;;;;;5046919;28;20083;-39
2023/11/25 08:26:27;;;;;;;7.32;0.77;;;6.10;99.90;;;;;;5046574;28;20080;-40
2023/11/25 08:28:54;;;;;;;7.88;0.95;;;6.10;99.90;;;;;;5046439;28;20025;-41
2023/11/25 08:31:20;;;;;;;2.92;0.88;;;6.20;99.90;;;;;;5047176;28;20037;-39
2023/11/25 08:33:46;;;;;;;6.03;0.60;;;6.30;99.90;;;;;;5046890;28;20052;-38
2023/11/25 08:36:13;;;;;;;7.85;0.82;;;6.50;99.90;;;;;;5045739;28;20372;-41
2023/11/25 08:38:39;;;;;;;5.07;0.73;;;6.50;99.90;;;;;;5046740;28;20034;-40
2023/11/25 08:41:08;;;;;;;3.20;0.50;;;6.60;99.90;;;;;;5046217;28;20088;-43
2023/11/25 08:43:37;;;;;;;5.88;0.63;;;6.60;99.90;;;;;;5046988;28;20036;-40
2023/11/25 08:46:04;;;;;;;1.83;0.70;;;6.60;99.90;;;;;;5045872;28;20041;-40
2023/11/25 08:48:30;;;;;;;6.47;1.30;;;6.70;99.90;;;;;;5046463;28;20033;-39
2023/11/25 08:50:56;;;;;;;7.90;0.70;;;6.70;99.90;;;;;;5046470;28;21644;-41
2023/11/25 08:53:23;;;;;;;2.88;0.65;;;6.70;99.90;;;;;;5045248;28;20029;-39
2023/11/25 08:55:49;;;;;;;2.05;0.50;;;6.40;99.90;;;;;;5046273;28;20491;-39
2023/11/25 08:58:15;;;;;;;1.23;0.10;;;6.20;99.90;;;;;;5046858;28;20032;-39
2023/11/25 09:00:41;;;;;;;13.73;2.00;;;6.10;99.90;;;;;;5046578;28;20033;-40
2023/11/25 09:03:09;;;;;;;1.75;0.50;;;6.00;99.90;;;;;;5045964;28;20450;-37
2023/11/25 09:05:36;;;;;;;4.80;0.52;;;6.00;99.90;;;;;;5042835;28;20539;-39
2023/11/25 09:08:07;;;;;;;5.05;0.65;;;6.00;99.90;;;;;;5046647;28;20052;-41
2023/11/25 09:10:34;;;;;;;16.45;1.35;;;6.00;99.90;;;;;;5045635;28;20121;-40
2023/11/25 09:13:02;;;;;;;2.40;0.30;;;6.00;99.90;;;;;;5026919;28;20030;-48
2023/11/25 09:15:27;;;;;;;3.55;0.57;;;6.10;99.90;;;;;;5058228;28;20395;-46
2023/11/25 09:17:53;;;;;;;7.25;1.05;;;6.30;99.90;;;;;;5045636;28;20056;-39
2023/11/25 09:20:20;;;;;;;5.07;0.57;;;6.50;99.90;;;;;;5045734;28;20044;-40
2023/11/25 09:22:46;;;;;;;10.50;1.50;;;6.70;99.90;;;;;;5046155;28;20029;-39
2023/11/25 09:25:12;;;;;;;4.28;0.85;;;6.80;99.90;;;;;;5045936;28;20073;-38
2023/11/25 09:27:39;;;;;;;8.20;0.82;;;6.80;99.90;;;;;;5046286;28;20061;-40
2023/11/25 09:30:05;;;;;;;5.45;0.88;;;6.90;99.90;;;;;;5045892;28;20057;-39
2023/11/25 09:32:31;;;;;;;3.42;0.73;;;7.00;99.90;;;;;;5046224;28;20026;-42
2023/11/25 09:34:57;;;;;;;11.38;1.92;;;7.10;99.90;;;;;;5045309;28;20026;-52
2023/11/25 09:37:23;;;;;;;12.63;1.63;;;7.10;99.90;;;;;;5045970;28;20029;-53
2023/11/25 09:39:49;;;;;;;8.90;0.90;;;7.10;99.90;;;;;;5045541;28;20032;-57
2023/11/25 09:42:15;;;;;;;6.65;0.95;;;7.20;99.90;;;;;;5045371;28;20089;-52
2023/11/25 09:44:42;;;;;;;8.65;1.40;;;7.20;99.90;;;;;;5045545;28;20431;-53
2023/11/25 09:47:07;;;;;;;9.38;1.42;;;7.20;99.90;;;;;;5045732;28;20022;-52
2023/11/25 09:49:33;;;;;;;9.68;1.13;;;7.20;99.90;;;;;;5045504;28;20018;-47
2023/11/25 09:52:04;;;;;;;10.10;0.85;;;7.30;99.90;;;;;;5045433;28;20037;-51
2023/11/25 09:54:31;;;;;;;6.72;0.98;;;7.30;99.90;;;;;;5042997;28;20021;-52
2023/11/25 09:57:00;;;;;;;9.10;1.38;;;7.40;99.90;;;;;;5045763;28;20022;-52
2023/11/25 09:59:27;;;;;;;7.97;1.33;;;7.40;99.90;;;;;;5036846;28;20089;-52
2023/11/25 10:01:52;;;;;;;11.00;1.67;;;7.30;99.90;;;;;;5040610;28;20052;-65
2023/11/25 10:04:19;;;;;;;3.50;1.08;;;7.40;99.90;;;;;;5045450;28;20231;-53
2023/11/25 10:06:48;;;;;;;11.10;1.30;;;7.40;99.90;;;;;;5045584;28;20036;-54
2023/11/25 10:09:15;;;;;;;16.98;1.25;;;7.30;99.90;;;;;;5044767;28;20021;-52
2023/11/25 10:11:44;;;;;;;5.55;0.95;;;7.40;99.90;;;;;;5044488;28;20121;-50
2023/11/25 10:14:13;;;;;;;6.63;1.83;;;7.40;99.90;;;;;;5043557;28;20057;-54
2023/11/25 10:16:44;;;;;;;5.80;0.77;;;7.40;99.90;;;;;;5042963;28;20099;-54
2023/11/25 10:19:20;;;;;;;8.75;1.13;;;7.50;99.90;;;;;;5045490;28;20037;-53
2023/11/25 10:21:48;;;;;;;10.73;1.73;;;7.80;99.90;;;;;;5045458;28;20053;-52
2023/11/25 10:24:14;;;;;;;4.65;0.85;;;8.10;99.90;;;;;;5045032;28;20025;-53
2023/11/25 10:26:40;;;;;;;6.03;0.90;;;8.20;99.90;;;;;;5045069;28;20550;-54
2023/11/25 10:29:07;;;;;;;10.70;1.05;;;8.10;99.90;;;;;;5045560;28;20038;-53
2023/11/25 10:31:33;;;;;;;10.25;1.63;;;8.00;99.90;;;;;;5045152;28;20030;-53
2023/11/25 10:34:00;;;;;;;8.80;1.70;;;7.80;99.90;;;;;;5042049;28;20495;-54
2023/11/25 10:36:26;;;;;;;4.95;1.10;;;7.60;99.90;;;;;;5045345;28;20190;-51
2023/11/25 10:38:53;;;;;;;2.45;0.65;;;7.50;99.90;;;;;;5045281;28;20029;-53
2023/11/25 10:41:20;;;;;;;7.23;0.80;;;7.40;99.90;;;;;;5045225;28;20033;-55
2023/11/25 10:43:47;;;;;;;15.93;1.73;;;7.30;99.90;;;;;;5043692;28;20843;-54
2023/11/25 10:46:13;;;;;;;4.32;1.35;;;7.30;99.90;;;;;;5039867;28;20030;-54
2023/11/25 10:48:39;;;;;;;1.38;0.55;;;7.50;99.90;;;;;;5025732;28;20025;-54
2023/11/25 10:51:07;;;;;;;8.80;1.25;;;7.70;99.90;;;;;;5029890;28;20025;-53
2023/11/25 10:53:36;;;;;;;;;;;7.90;99.90;;;;;;5045535;28;20033;-52
2023/11/25 10:56:03;;;;;;;24.15;1.27;;;8.00;99.90;;;;;;5045178;28;19920;-61
2023/11/25 10:58:30;;;;;;;12.00;2.15;;;8.00;99.90;;;;;;5044105;28;20060;-54
2023/11/25 11:00:57;;;;;;;4.43;1.25;;;8.00;99.90;;;;;;5045978;28;20029;-52
2023/11/25 11:03:43;;;;;;;0.98;0.47;;;7.90;99.90;;;;;;5038820;28;20022;-53
2023/11/25 11:06:13;;;;;;;3.30;0.93;;;7.70;99.90;;;;;;5046008;28;20053;-54
2023/11/25 11:08:42;;;;;;;2.78;0.43;;;7.70;99.90;;;;;;5048499;28;20021;-54
2023/11/25 11:11:15;;;;;;;4.82;0.82;;;7.60;99.90;;;;;;5048873;28;20022;-54
2023/11/25 11:13:56;;;;;;;5.10;0.85;;;7.50;99.90;;;;;;5048091;28;20025;-53
2023/11/25 11:17:12;;;;;;;6.45;1.30;;;7.30;99.90;;;;;;5047252;28;20030;-54
2023/11/25 11:19:41;;;;;;;5.80;1.25;;;7.20;99.90;;;;;;5027970;28;20077;-56
2023/11/25 11:22:11;;;;;;;6.53;0.80;;;7.10;99.90;;;;;;5047182;28;20038;-54
2023/11/25 11:24:47;;;;;;;7.60;1.15;;;7.10;99.90;;;;;;5048056;28;20057;-54
2023/11/25 11:27:45;;;;;;;6.20;1.10;;;7.10;99.90;;;;;;5048558;28;20036;-53
2023/11/25 11:30:22;;;;;;;6.53;1.05;;;7.10;99.90;;;;;;5048437;28;20025;-53
2023/11/25 11:32:48;;;;;;;2.80;0.77;;;7.30;99.90;;;;;;5045923;28;20077;-53
2023/11/25 11:35:14;;;;;;;9.35;1.40;;;7.40;99.90;;;;;;5046304;28;20053;-53
2023/11/25 11:37:48;;;;;;;7.45;1.23;;;7.40;99.90;;;;;;5047028;28;20053;-48
2023/11/25 11:40:13;;;;;;;8.57;1.10;;;7.30;99.90;;;;;;5046419;28;20163;-53
2023/11/25 11:42:40;;;;;;;4.80;0.70;;;7.30;99.90;;;;;;5046391;28;20030;-55
2023/11/25 11:45:20;;;;;;;7.38;0.80;;;7.30;99.90;;;;;;5047381;28;20030;-52
2023/11/25 11:47:47;;;;;;;8.68;1.25;;;7.40;99.90;;;;;;5048066;28;20041;-51
2023/11/25 11:50:27;;;;;;;8.40;1.05;;;7.50;99.90;;;;;;5047358;28;20025;-54
2023/11/25 11:53:01;;;;;;;5.25;1.08;;;7.70;99.90;;;;;;5047899;28;20438;-53
2023/11/25 11:55:55;;;;;;;4.97;0.52;;;7.80;99.90;;;;;;5028075;28;20034;-54
2023/11/25 11:58:25;;;;;;;9.07;1.02;;;7.90;99.90;;;;;;5032961;28;20021;-51
2023/11/25 12:01:06;;;;;;;6.22;1.02;;;7.90;99.90;;;;;;5047127;28;20018;-54
2023/11/25 12:03:34;;;;;;;4.85;0.98;;;7.90;99.90;;;;;;5047592;28;20034;-54
2023/11/25 12:06:00;;;;;;;7.55;0.80;;;7.90;99.90;;;;;;5046954;28;20034;-54
2023/11/25 12:08:30;;;;;;;6.82;0.90;;;8.00;99.90;;;;;;5047280;28;20049;-60
2023/11/25 12:10:58;;;;;;;4.45;0.70;;;7.90;99.90;;;;;;5045597;28;20495;-67
2023/11/25 12:13:31;;;;;;;5.90;0.45;;;7.90;99.90;;;;;;5040587;28;20021;-52
2023/11/25 12:16:03;;;;;;;2.38;0.52;;;7.90;99.90;;;;;;5046764;28;20040;-49
2023/11/25 12:18:30;;;;;;;10.50;0.77;;;8.00;99.90;;;;;;5042829;28;20072;-52
2023/11/25 12:20:57;;;;;;;2.20;0.47;;;8.00;99.90;;;;;;5045883;28;20037;-54
2023/11/25 12:23:28;;;;;;;3.70;0.95;;;8.00;99.90;;;;;;5047273;28;20017;-51
2023/11/25 12:25:54;;;;;;;6.65;0.88;;;8.20;99.90;;;;;;5046382;28;20121;-52
2023/11/25 12:28:20;;;;;;;10.88;1.05;;;8.30;99.90;;;;;;5047006;28;20023;-53
2023/11/25 12:30:46;;;;;;;4.13;0.80;;;8.30;99.90;;;;;;5046197;28;20021;-54
2023/11/25 12:33:11;;;;;;;6.70;0.60;;;8.20;99.90;;;;;;5045109;28;20026;-53
2023/11/25 12:35:40;;;;;;;5.55;0.95;;;8.00;99.90;;;;;;5044833;28;20028;-49
2023/11/25 12:38:06;;;;;;;7.35;0.80;;;7.90;99.90;;;;;;5044959;28;20033;-52
2023/11/25 12:40:32;;;;;;;3.70;0.47;;;7.70;99.90;;;;;;5055501;28;20032;-49
2023/11/25 12:42:58;;;;;;;12.23;0.40;;;7.60;99.90;;;;;;5039594;28;20044;-49
2023/11/25 12:45:35;;;;;;;4.05;0.95;;;7.50;99.90;;;;;;5054985;28;20034;-54
2023/11/25 12:48:05;;;;;;;10.87;1.00;;;7.50;99.90;;;;;;5038983;28;20059;-53
2023/11/25 12:50:33;;;;;;;3.17;0.63;;;7.40;99.90;;;;;;5039275;28;20022;-50
2023/11/25 12:53:08;;;;;;;3.67;0.87;;;7.30;99.90;;;;;;5040963;28;20222;-53
2023/11/25 12:55:39;;;;;;;3.45;0.32;;;7.30;99.90;;;;;;5039120;28;20279;-52
2023/11/25 12:58:12;;;;;;;8.18;0.75;;;7.30;99.90;;;;;;5046532;28;20029;-54